sensor_id;sensor_type;location;lat;lon;timestamp;temperature;humidity
43049;DHT22;28673;44.412;11.918;2023-05-29T00:01:39;18.70;99.90
43049;DHT22;28673;44.412;11.918;2023-05-29T00:04:06;18.70;99.90
43049;DHT22;28673;44.412;11.918;2023-05-29T00:06:32;18.70;99.90
43049;DHT22;28673;44.412;11.918;2023-05-29T00:09:16;18.70;99.90
43049;DHT22;28673;44.412;11.918;2023-05-29T00:11:42;18.60;99.90
43049;DHT22;28673;44.412;11.918;2023-05-29T00:14:07;18.60;99.90
43049;DHT22;28673;44.412;11.918;2023-05-29T00:16:33;18.60;99.90
43049;DHT22;28673;44.412;11.918;2023-05-29T00:21:47;18.50;99.90
43049;DHT22;28673;44.412;11.918;2023-05-29T00:24:32;18.50;99.90
43049;DHT22;28673;44.412;11.918;2023-05-29T00:26:58;18.50;99.90
43049;DHT22;28673;44.412;11.918;2023-05-29T00:29:24;18.40;99.90
43049;DHT22;28673;44.412;11.918;2023-05-29T00:35:13;18.40;99.90
43049;DHT22;28673;44.412;11.918;2023-05-29T00:37:57;18.40;99.90
43049;DHT22;28673;44.412;11.918;2023-05-29T00:40:42;18.30;99.90
43049;DHT22;28673;44.412;11.918;2023-05-29T00:43:08;18.30;99.90
43049;DHT22;28673;44.412;11.918;2023-05-29T00:45:52;18.30;99.90
43049;DHT22;28673;44.412;11.918;2023-05-29T00:48:18;18.20;99.90
43049;DHT22;28673;44.412;11.918;2023-05-29T00:50:44;18.20;99.90
43049;DHT22;28673;44.412;11.918;2023-05-29T00:53:10;18.20;99.90
43049;DHT22;28673;44.412;11.918;2023-05-29T00:58:21;18.10;99.90
43049;DHT22;28673;44.412;11.918;2023-05-29T01:00:47;18.10;99.90
43049;DHT22;28673;44.412;11.918;2023-05-29T01:03:14;18.10;99.90
43049;DHT22;28673;44.412;11.918;2023-05-29T01:05:42;18.00;99.90
43049;DHT22;28673;44.412;11.918;2023-05-29T01:08:45;18.00;99.90
43049;DHT22;28673;44.412;11.918;2023-05-29T01:11:27;18.00;99.90
43049;DHT22;28673;44.412;11.918;2023-05-29T01:16:53;18.00;99.90
43049;DHT22;28673;44.412;11.918;2023-05-29T01:25:29;17.90;99.90
43049;DHT22;28673;44.412;11.918;2023-05-29T01:28:01;17.90;99.90
43049;DHT22;28673;44.412;11.918;2023-05-29T01:30:31;17.90;99.90
43049;DHT22;28673;44.412;11.918;2023-05-29T01:32:58;17.90;99.90
43049;DHT22;28673;44.412;11.918;2023-05-29T01:35:42;17.90;99.90
43049;DHT22;28673;44.412;11.918;2023-05-29T01:38:08;17.80;99.90
43049;DHT22;28673;44.412;11.918;2023-05-29T01:40:35;17.80;99.90
43049;DHT22;28673;44.412;11.918;2023-05-29T01:46:03;17.70;99.90
43049;DHT22;28673;44.412;11.918;2023-05-29T01:51:51;17.70;99.90
43049;DHT22;28673;44.412;11.918;2023-05-29T01:54:17;17.70;99.90
43049;DHT22;28673;44.412;11.918;2023-05-29T01:57:03;17.60;99.90
43049;DHT22;28673;44.412;11.918;2023-05-29T01:59:32;17.60;99.90
43049;DHT22;28673;44.412;11.918;2023-05-29T02:02:08;17.60;99.90
43049;DHT22;28673;44.412;11.918;2023-05-29T02:07:19;17.50;99.90
43049;DHT22;28673;44.412;11.918;2023-05-29T02:09:45;17.50;99.90
43049;DHT22;28673;44.412;11.918;2023-05-29T02:12:29;17.50;99.90
43049;DHT22;28673;44.412;11.918;2023-05-29T02:14:55;17.40;99.90
43049;DHT22;28673;44.412;11.918;2023-05-29T02:17:23;17.40;99.90
43049;DHT22;28673;44.412;11.918;2023-05-29T02:19:49;17.40;99.90
43049;DHT22;28673;44.412;11.918;2023-05-29T02:22:17;17.40;99.90
43049;DHT22;28673;44.412;11.918;2023-05-29T02:24:43;17.40;99.90
43049;DHT22;28673;44.412;11.918;2023-05-29T02:27:09;17.40;99.90
43049;DHT22;28673;44.412;11.918;2023-05-29T02:29:35;17.40;99.90
43049;DHT22;28673;44.412;11.918;2023-05-29T02:32:01;17.40;99.90
43049;DHT22;28673;44.412;11.918;2023-05-29T02:34:27;17.40;99.90
43049;DHT22;28673;44.412;11.918;2023-05-29T02:36:53;17.30;99.90
43049;DHT22;28673;44.412;11.918;2023-05-29T02:39:20;17.30;99.90
43049;DHT22;28673;44.412;11.918;2023-05-29T02:41:46;17.30;99.90
43049;DHT22;28673;44.412;11.918;2023-05-29T02:44:12;17.30;99.90
43049;DHT22;28673;44.412;11.918;2023-05-29T02:46:39;17.20;99.90
43049;DHT22;28673;44.412;11.918;2023-05-29T02:49:04;17.20;99.90
43049;DHT22;28673;44.412;11.918;2023-05-29T02:51:30;17.20;99.90
43049;DHT22;28673;44.412;11.918;2023-05-29T02:53:58;17.20;99.90
43049;DHT22;28673;44.412;11.918;2023-05-29T02:56:24;17.10;99.90
43049;DHT22;28673;44.412;11.918;2023-05-29T02:58:50;17.10;99.90
43049;DHT22;28673;44.412;11.918;2023-05-29T03:01:17;17.10;99.90
43049;DHT22;28673;44.412;11.918;2023-05-29T03:03:43;17.10;99.90
43049;DHT22;28673;44.412;11.918;2023-05-29T03:06:09;17.10;99.90
43049;DHT22;28673;44.412;11.918;2023-05-29T03:08:39;17.10;99.90
43049;DHT22;28673;44.412;11.918;2023-05-29T03:11:09;17.10;99.90
43049;DHT22;28673;44.412;11.918;2023-05-29T03:13:37;17.10;99.90
43049;DHT22;28673;44.412;11.918;2023-05-29T03:16:06;17.10;99.90
43049;DHT22;28673;44.412;11.918;2023-05-29T03:18:34;17.10;99.90
43049;DHT22;28673;44.412;11.918;2023-05-29T03:21:01;17.10;99.90
43049;DHT22;28673;44.412;11.918;2023-05-29T03:23:28;17.10;99.90
43049;DHT22;28673;44.412;11.918;2023-05-29T03:25:54;17.10;99.90
43049;DHT22;28673;44.412;11.918;2023-05-29T03:28:20;17.10;99.90
43049;DHT22;28673;44.412;11.918;2023-05-29T03:30:47;17.10;99.90
43049;DHT22;28673;44.412;11.918;2023-05-29T03:33:16;17.10;99.90
43049;DHT22;28673;44.412;11.918;2023-05-29T03:35:57;17.10;99.90
43049;DHT22;28673;44.412;11.918;2023-05-29T03:38:23;17.10;99.90
43049;DHT22;28673;44.412;11.918;2023-05-29T03:40:49;17.10;99.90
43049;DHT22;28673;44.412;11.918;2023-05-29T03:43:15;17.10;99.90
43049;DHT22;28673;44.412;11.918;2023-05-29T03:45:41;17.10;99.90
43049;DHT22;28673;44.412;11.918;2023-05-29T03:48:07;17.10;99.90
43049;DHT22;28673;44.412;11.918;2023-05-29T03:50:33;17.10;99.90
43049;DHT22;28673;44.412;11.918;2023-05-29T03:52:59;17.10;99.90
43049;DHT22;28673;44.412;11.918;2023-05-29T03:55:26;17.10;99.90
43049;DHT22;28673;44.412;11.918;2023-05-29T03:57:52;17.10;99.90
43049;DHT22;28673;44.412;11.918;2023-05-29T04:00:18;17.10;99.90
43049;DHT22;28673;44.412;11.918;2023-05-29T04:02:47;17.10;99.90
43049;DHT22;28673;44.412;11.918;2023-05-29T04:05:13;17.10;99.90
43049;DHT22;28673;44.412;11.918;2023-05-29T04:07:40;17.10;99.90
43049;DHT22;28673;44.412;11.918;2023-05-29T04:10:07;17.10;99.90
43049;DHT22;28673;44.412;11.918;2023-05-29T04:12:34;17.10;99.90
43049;DHT22;28673;44.412;11.918;2023-05-29T04:15:00;17.10;99.90
43049;DHT22;28673;44.412;11.918;2023-05-29T04:17:26;17.10;99.90
43049;DHT22;28673;44.412;11.918;2023-05-29T04:19:52;17.10;99.90
43049;DHT22;28673;44.412;11.918;2023-05-29T04:22:18;17.10;99.90
43049;DHT22;28673;44.412;11.918;2023-05-29T04:24:46;17.10;99.90
43049;DHT22;28673;44.412;11.918;2023-05-29T04:27:12;17.10;99.90
43049;DHT22;28673;44.412;11.918;2023-05-29T04:29:40;17.10;99.90
43049;DHT22;28673;44.412;11.918;2023-05-29T04:32:11;17.10;99.90
43049;DHT22;28673;44.412;11.918;2023-05-29T04:34:38;17.10;99.90
43049;DHT22;28673;44.412;11.918;2023-05-29T04:37:05;17.10;99.90
43049;DHT22;28673;44.412;11.918;2023-05-29T04:39:32;17.10;99.90
43049;DHT22;28673;44.412;11.918;2023-05-29T04:41:58;17.10;99.90
43049;DHT22;28673;44.412;11.918;2023-05-29T04:44:25;17.10;99.90
43049;DHT22;28673;44.412;11.918;2023-05-29T04:46:53;17.10;99.90
43049;DHT22;28673;44.412;11.918;2023-05-29T04:49:19;17.10;99.90
43049;DHT22;28673;44.412;11.918;2023-05-29T04:51:46;17.10;99.90
43049;DHT22;28673;44.412;11.918;2023-05-29T04:54:12;17.20;99.90
43049;DHT22;28673;44.412;11.918;2023-05-29T04:56:40;17.20;99.90
43049;DHT22;28673;44.412;11.918;2023-05-29T04:59:08;17.20;99.90
43049;DHT22;28673;44.412;11.918;2023-05-29T05:01:34;17.20;99.90
43049;DHT22;28673;44.412;11.918;2023-05-29T05:04:00;17.30;99.90
43049;DHT22;28673;44.412;11.918;2023-05-29T05:06:26;17.30;99.90
43049;DHT22;28673;44.412;11.918;2023-05-29T05:08:53;17.40;99.90
43049;DHT22;28673;44.412;11.918;2023-05-29T05:11:20;17.40;99.90
43049;DHT22;28673;44.412;11.918;2023-05-29T05:13:46;17.50;99.90
43049;DHT22;28673;44.412;11.918;2023-05-29T05:16:12;17.60;99.90
43049;DHT22;28673;44.412;11.918;2023-05-29T05:18:40;17.70;99.90
43049;DHT22;28673;44.412;11.918;2023-05-29T05:21:07;17.80;99.90
43049;DHT22;28673;44.412;11.918;2023-05-29T05:23:34;17.80;99.90
43049;DHT22;28673;44.412;11.918;2023-05-29T05:26:01;18.00;99.90
43049;DHT22;28673;44.412;11.918;2023-05-29T05:28:28;18.00;99.90
43049;DHT22;28673;44.412;11.918;2023-05-29T05:30:54;18.10;99.90
43049;DHT22;28673;44.412;11.918;2023-05-29T05:33:20;18.20;99.90
43049;DHT22;28673;44.412;11.918;2023-05-29T05:35:46;18.30;99.90
43049;DHT22;28673;44.412;11.918;2023-05-29T05:38:12;18.40;99.90
43049;DHT22;28673;44.412;11.918;2023-05-29T05:40:38;18.50;99.90
43049;DHT22;28673;44.412;11.918;2023-05-29T05:43:13;18.60;99.90
43049;DHT22;28673;44.412;11.918;2023-05-29T05:46:14;18.80;99.90
43049;DHT22;28673;44.412;11.918;2023-05-29T05:48:42;18.90;99.90
43049;DHT22;28673;44.412;11.918;2023-05-29T05:51:08;19.00;99.90
43049;DHT22;28673;44.412;11.918;2023-05-29T05:53:34;19.20;99.90
43049;DHT22;28673;44.412;11.918;2023-05-29T05:56:01;19.30;99.90
43049;DHT22;28673;44.412;11.918;2023-05-29T05:58:27;19.30;99.90
43049;DHT22;28673;44.412;11.918;2023-05-29T06:00:53;19.50;99.90
43049;DHT22;28673;44.412;11.918;2023-05-29T06:03:19;19.60;99.90
43049;DHT22;28673;44.412;11.918;2023-05-29T06:05:59;19.70;99.90
43049;DHT22;28673;44.412;11.918;2023-05-29T06:08:25;19.90;99.90
43049;DHT22;28673;44.412;11.918;2023-05-29T06:10:52;20.00;99.90
43049;DHT22;28673;44.412;11.918;2023-05-29T06:13:18;20.10;99.90
43049;DHT22;28673;44.412;11.918;2023-05-29T06:15:49;20.30;99.90
43049;DHT22;28673;44.412;11.918;2023-05-29T06:18:14;20.40;99.90
43049;DHT22;28673;44.412;11.918;2023-05-29T06:20:40;20.50;99.90
43049;DHT22;28673;44.412;11.918;2023-05-29T06:23:07;20.70;99.90
43049;DHT22;28673;44.412;11.918;2023-05-29T06:25:34;20.70;99.90
43049;DHT22;28673;44.412;11.918;2023-05-29T06:28:00;20.80;99.90
43049;DHT22;28673;44.412;11.918;2023-05-29T06:30:27;21.00;99.90
43049;DHT22;28673;44.412;11.918;2023-05-29T06:32:53;21.10;99.90
43049;DHT22;28673;44.412;11.918;2023-05-29T06:35:25;21.30;99.90
43049;DHT22;28673;44.412;11.918;2023-05-29T06:37:51;21.40;99.90
43049;DHT22;28673;44.412;11.918;2023-05-29T06:40:17;21.60;99.90
43049;DHT22;28673;44.412;11.918;2023-05-29T06:42:44;21.70;99.90
43049;DHT22;28673;44.412;11.918;2023-05-29T06:45:14;21.90;99.90
43049;DHT22;28673;44.412;11.918;2023-05-29T06:47:41;22.10;99.90
43049;DHT22;28673;44.412;11.918;2023-05-29T06:50:07;22.20;99.90
43049;DHT22;28673;44.412;11.918;2023-05-29T06:52:35;22.40;99.90
43049;DHT22;28673;44.412;11.918;2023-05-29T06:55:25;22.50;99.90
43049;DHT22;28673;44.412;11.918;2023-05-29T06:57:54;22.70;99.90
43049;DHT22;28673;44.412;11.918;2023-05-29T07:00:22;22.80;99.90
43049;DHT22;28673;44.412;11.918;2023-05-29T07:03:08;22.90;99.90
43049;DHT22;28673;44.412;11.918;2023-05-29T07:05:34;23.10;99.90
43049;DHT22;28673;44.412;11.918;2023-05-29T07:08:01;23.20;99.90
43049;DHT22;28673;44.412;11.918;2023-05-29T07:10:28;23.40;99.90
43049;DHT22;28673;44.412;11.918;2023-05-29T07:12:53;23.50;99.90
43049;DHT22;28673;44.412;11.918;2023-05-29T07:15:20;23.70;99.90
43049;DHT22;28673;44.412;11.918;2023-05-29T07:17:46;23.90;99.90
43049;DHT22;28673;44.412;11.918;2023-05-29T07:20:18;24.00;99.90
43049;DHT22;28673;44.412;11.918;2023-05-29T07:22:46;24.20;99.90
43049;DHT22;28673;44.412;11.918;2023-05-29T07:25:12;24.30;99.90
43049;DHT22;28673;44.412;11.918;2023-05-29T07:27:38;24.50;99.90
43049;DHT22;28673;44.412;11.918;2023-05-29T07:30:05;24.70;99.90
43049;DHT22;28673;44.412;11.918;2023-05-29T07:32:32;24.80;99.90
43049;DHT22;28673;44.412;11.918;2023-05-29T07:34:59;25.00;99.90
43049;DHT22;28673;44.412;11.918;2023-05-29T07:37:25;25.20;99.90
43049;DHT22;28673;44.412;11.918;2023-05-29T07:39:52;25.30;99.90
43049;DHT22;28673;44.412;11.918;2023-05-29T07:42:41;25.60;99.90
43049;DHT22;28673;44.412;11.918;2023-05-29T07:45:08;25.80;99.90
43049;DHT22;28673;44.412;11.918;2023-05-29T07:47:34;25.90;99.90
43049;DHT22;28673;44.412;11.918;2023-05-29T07:50:00;26.10;99.90
43049;DHT22;28673;44.412;11.918;2023-05-29T07:52:28;26.40;99.90
43049;DHT22;28673;44.412;11.918;2023-05-29T07:54:54;26.50;99.90
43049;DHT22;28673;44.412;11.918;2023-05-29T07:57:22;26.70;99.90
43049;DHT22;28673;44.412;11.918;2023-05-29T07:59:50;26.80;99.90
43049;DHT22;28673;44.412;11.918;2023-05-29T08:02:17;27.10;99.90
43049;DHT22;28673;44.412;11.918;2023-05-29T08:04:54;27.20;99.80
43049;DHT22;28673;44.412;11.918;2023-05-29T08:07:22;27.40;99.90
43049;DHT22;28673;44.412;11.918;2023-05-29T08:09:48;27.70;99.70
43049;DHT22;28673;44.412;11.918;2023-05-29T08:12:15;27.80;99.00
43049;DHT22;28673;44.412;11.918;2023-05-29T08:14:42;28.00;98.90
43049;DHT22;28673;44.412;11.918;2023-05-29T08:17:08;28.20;98.80
43049;DHT22;28673;44.412;11.918;2023-05-29T08:19:34;28.40;98.70
43049;DHT22;28673;44.412;11.918;2023-05-29T08:22:00;28.70;98.20
43049;DHT22;28673;44.412;11.918;2023-05-29T08:24:26;28.90;98.30
43049;DHT22;28673;44.412;11.918;2023-05-29T08:26:53;29.10;97.80
43049;DHT22;28673;44.412;11.918;2023-05-29T08:29:19;29.30;97.20
43049;DHT22;28673;44.412;11.918;2023-05-29T08:31:45;29.40;96.90
43049;DHT22;28673;44.412;11.918;2023-05-29T08:34:11;29.60;96.80
43049;DHT22;28673;44.412;11.918;2023-05-29T08:36:37;29.70;96.40
43049;DHT22;28673;44.412;11.918;2023-05-29T08:39:03;29.90;96.00
43049;DHT22;28673;44.412;11.918;2023-05-29T08:44:22;29.80;94.10
43049;DHT22;28673;44.412;11.918;2023-05-29T08:46:54;29.80;94.60
43049;DHT22;28673;44.412;11.918;2023-05-29T08:49:20;29.90;94.50
43049;DHT22;28673;44.412;11.918;2023-05-29T08:51:52;29.90;94.60
43049;DHT22;28673;44.412;11.918;2023-05-29T08:54:20;30.10;94.50
43049;DHT22;28673;44.412;11.918;2023-05-29T08:56:46;30.30;94.40
43049;DHT22;28673;44.412;11.918;2023-05-29T08:59:12;30.50;93.70
43049;DHT22;28673;44.412;11.918;2023-05-29T09:01:39;30.60;93.50
43049;DHT22;28673;44.412;11.918;2023-05-29T09:04:05;30.70;92.90
43049;DHT22;28673;44.412;11.918;2023-05-29T09:06:31;31.00;92.70
43049;DHT22;28673;44.412;11.918;2023-05-29T09:08:57;31.20;92.50
43049;DHT22;28673;44.412;11.918;2023-05-29T09:11:23;31.40;92.30
43049;DHT22;28673;44.412;11.918;2023-05-29T09:13:49;31.50;91.40
43049;DHT22;28673;44.412;11.918;2023-05-29T09:16:18;31.40;91.30
43049;DHT22;28673;44.412;11.918;2023-05-29T09:18:43;31.50;91.30
43049;DHT22;28673;44.412;11.918;2023-05-29T09:21:26;31.50;91.00
43049;DHT22;28673;44.412;11.918;2023-05-29T09:23:54;31.40;90.90
43049;DHT22;28673;44.412;11.918;2023-05-29T09:26:21;31.50;91.00
43049;DHT22;28673;44.412;11.918;2023-05-29T09:28:49;31.70;90.90
43049;DHT22;28673;44.412;11.918;2023-05-29T09:31:15;31.90;90.10
43049;DHT22;28673;44.412;11.918;2023-05-29T09:33:50;31.80;90.30
43049;DHT22;28673;44.412;11.918;2023-05-29T09:36:20;31.90;90.00
43049;DHT22;28673;44.412;11.918;2023-05-29T09:38:47;32.10;90.10
43049;DHT22;28673;44.412;11.918;2023-05-29T09:41:13;32.30;89.70
43049;DHT22;28673;44.412;11.918;2023-05-29T09:43:45;32.30;88.90
43049;DHT22;28673;44.412;11.918;2023-05-29T09:46:16;32.30;88.40
43049;DHT22;28673;44.412;11.918;2023-05-29T09:48:46;32.30;86.40
43049;DHT22;28673;44.412;11.918;2023-05-29T09:51:20;32.40;86.70
43049;DHT22;28673;44.412;11.918;2023-05-29T09:53:47;32.50;83.40
43049;DHT22;28673;44.412;11.918;2023-05-29T09:56:15;32.50;84.60
43049;DHT22;28673;44.412;11.918;2023-05-29T09:58:43;32.70;85.00
43049;DHT22;28673;44.412;11.918;2023-05-29T10:01:12;33.00;84.60
43049;DHT22;28673;44.412;11.918;2023-05-29T10:03:38;33.10;83.80
43049;DHT22;28673;44.412;11.918;2023-05-29T10:06:06;33.20;84.70
43049;DHT22;28673;44.412;11.918;2023-05-29T10:08:35;33.40;84.60
43049;DHT22;28673;44.412;11.918;2023-05-29T10:11:03;33.70;84.10
43049;DHT22;28673;44.412;11.918;2023-05-29T10:13:42;34.00;81.90
43049;DHT22;28673;44.412;11.918;2023-05-29T10:16:14;34.30;80.40
43049;DHT22;28673;44.412;11.918;2023-05-29T10:18:44;34.40;80.60
43049;DHT22;28673;44.412;11.918;2023-05-29T10:21:15;34.30;79.70
43049;DHT22;28673;44.412;11.918;2023-05-29T10:23:46;34.20;81.00
43049;DHT22;28673;44.412;11.918;2023-05-29T10:26:19;34.20;80.20
43049;DHT22;28673;44.412;11.918;2023-05-29T10:31:24;34.10;75.70
43049;DHT22;28673;44.412;11.918;2023-05-29T10:36:49;33.70;76.60
43049;DHT22;28673;44.412;11.918;2023-05-29T10:39:20;33.40;77.70
43049;DHT22;28673;44.412;11.918;2023-05-29T10:41:46;33.20;77.70
43049;DHT22;28673;44.412;11.918;2023-05-29T10:49:23;33.80;74.90
43049;DHT22;28673;44.412;11.918;2023-05-29T10:51:51;34.10;74.70
43049;DHT22;28673;44.412;11.918;2023-05-29T10:54:24;34.30;75.00
43049;DHT22;28673;44.412;11.918;2023-05-29T10:57:00;34.50;72.00
43049;DHT22;28673;44.412;11.918;2023-05-29T10:59:27;34.70;72.80
43049;DHT22;28673;44.412;11.918;2023-05-29T11:01:54;34.80;72.50
43049;DHT22;28673;44.412;11.918;2023-05-29T11:06:47;35.10;71.90
43049;DHT22;28673;44.412;11.918;2023-05-29T11:14:47;34.90;69.50
43049;DHT22;28673;44.412;11.918;2023-05-29T11:17:32;35.00;70.20
43049;DHT22;28673;44.412;11.918;2023-05-29T11:20:02;35.10;70.40
43049;DHT22;28673;44.412;11.918;2023-05-29T11:25:15;35.10;68.40
43049;DHT22;28673;44.412;11.918;2023-05-29T11:27:43;35.20;70.40
43049;DHT22;28673;44.412;11.918;2023-05-29T11:30:10;35.40;69.50
43049;DHT22;28673;44.412;11.918;2023-05-29T11:32:36;35.50;70.00
43049;DHT22;28673;44.412;11.918;2023-05-29T11:35:10;35.50;69.20
43049;DHT22;28673;44.412;11.918;2023-05-29T11:37:38;35.30;68.30
43049;DHT22;28673;44.412;11.918;2023-05-29T11:40:07;35.10;69.10
43049;DHT22;28673;44.412;11.918;2023-05-29T11:42:35;34.80;69.60
43049;DHT22;28673;44.412;11.918;2023-05-29T11:45:15;34.80;69.80
43049;DHT22;28673;44.412;11.918;2023-05-29T11:47:58;34.90;67.80
43049;DHT22;28673;44.412;11.918;2023-05-29T11:50:26;34.90;67.80
43049;DHT22;28673;44.412;11.918;2023-05-29T11:52:52;34.90;67.70
43049;DHT22;28673;44.412;11.918;2023-05-29T11:55:20;34.60;68.20
43049;DHT22;28673;44.412;11.918;2023-05-29T11:57:47;34.40;68.80
43049;DHT22;28673;44.412;11.918;2023-05-29T12:00:14;34.40;69.00
43049;DHT22;28673;44.412;11.918;2023-05-29T12:02:41;34.60;66.70
43049;DHT22;28673;44.412;11.918;2023-05-29T12:05:09;34.60;68.10
43049;DHT22;28673;44.412;11.918;2023-05-29T12:07:36;34.60;66.40
43049;DHT22;28673;44.412;11.918;2023-05-29T12:10:10;34.50;66.90
43049;DHT22;28673;44.412;11.918;2023-05-29T12:12:36;34.40;65.70
43049;DHT22;28673;44.412;11.918;2023-05-29T12:15:02;34.40;67.70
43049;DHT22;28673;44.412;11.918;2023-05-29T12:17:31;34.40;67.90
43049;DHT22;28673;44.412;11.918;2023-05-29T12:19:57;34.40;66.30
43049;DHT22;28673;44.412;11.918;2023-05-29T12:22:37;34.50;67.00
43049;DHT22;28673;44.412;11.918;2023-05-29T12:25:17;34.50;65.70
43049;DHT22;28673;44.412;11.918;2023-05-29T12:27:46;34.60;66.60
43049;DHT22;28673;44.412;11.918;2023-05-29T12:30:15;34.70;67.30
43049;DHT22;28673;44.412;11.918;2023-05-29T12:32:53;34.60;65.80
43049;DHT22;28673;44.412;11.918;2023-05-29T12:35:27;34.60;65.30
43049;DHT22;28673;44.412;11.918;2023-05-29T12:40:32;34.20;66.40
43049;DHT22;28673;44.412;11.918;2023-05-29T12:43:06;34.20;66.40
43049;DHT22;28673;44.412;11.918;2023-05-29T12:45:36;34.20;67.30
43049;DHT22;28673;44.412;11.918;2023-05-29T12:48:04;34.10;67.30
43049;DHT22;28673;44.412;11.918;2023-05-29T12:50:34;34.10;66.20
43049;DHT22;28673;44.412;11.918;2023-05-29T12:53:11;33.90;65.50
43049;DHT22;28673;44.412;11.918;2023-05-29T12:55:42;34.10;66.10
43049;DHT22;28673;44.412;11.918;2023-05-29T12:58:09;34.20;64.70
43049;DHT22;28673;44.412;11.918;2023-05-29T13:00:37;34.00;64.80
43049;DHT22;28673;44.412;11.918;2023-05-29T13:03:04;34.20;65.10
43049;DHT22;28673;44.412;11.918;2023-05-29T13:05:31;34.30;64.70
43049;DHT22;28673;44.412;11.918;2023-05-29T13:07:57;34.40;65.60
43049;DHT22;28673;44.412;11.918;2023-05-29T13:10:25;34.30;66.10
43049;DHT22;28673;44.412;11.918;2023-05-29T13:12:54;34.20;64.00
43049;DHT22;28673;44.412;11.918;2023-05-29T13:15:23;34.20;66.10
43049;DHT22;28673;44.412;11.918;2023-05-29T13:17:49;34.30;65.30
43049;DHT22;28673;44.412;11.918;2023-05-29T13:20:16;34.30;65.50
43049;DHT22;28673;44.412;11.918;2023-05-29T13:22:43;34.40;66.20
43049;DHT22;28673;44.412;11.918;2023-05-29T13:25:12;34.60;66.30
43049;DHT22;28673;44.412;11.918;2023-05-29T13:27:48;34.80;65.30
43049;DHT22;28673;44.412;11.918;2023-05-29T13:30:15;34.80;65.00
43049;DHT22;28673;44.412;11.918;2023-05-29T13:32:41;34.80;64.10
43049;DHT22;28673;44.412;11.918;2023-05-29T13:35:08;34.80;63.80
43049;DHT22;28673;44.412;11.918;2023-05-29T13:37:36;34.60;64.30
43049;DHT22;28673;44.412;11.918;2023-05-29T13:40:02;34.60;64.60
43049;DHT22;28673;44.412;11.918;2023-05-29T13:42:29;34.60;65.00
43049;DHT22;28673;44.412;11.918;2023-05-29T13:44:56;34.50;64.80
43049;DHT22;28673;44.412;11.918;2023-05-29T13:47:22;34.40;64.70
43049;DHT22;28673;44.412;11.918;2023-05-29T13:49:48;34.40;64.40
43049;DHT22;28673;44.412;11.918;2023-05-29T13:52:13;34.50;64.00
43049;DHT22;28673;44.412;11.918;2023-05-29T13:54:39;34.60;65.00
43049;DHT22;28673;44.412;11.918;2023-05-29T13:57:06;34.70;64.80
43049;DHT22;28673;44.412;11.918;2023-05-29T13:59:33;34.80;65.40
43049;DHT22;28673;44.412;11.918;2023-05-29T14:02:00;34.80;64.10
43049;DHT22;28673;44.412;11.918;2023-05-29T14:04:28;34.80;64.10
43049;DHT22;28673;44.412;11.918;2023-05-29T14:06:54;34.90;64.40
43049;DHT22;28673;44.412;11.918;2023-05-29T14:09:22;34.90;63.90
43049;DHT22;28673;44.412;11.918;2023-05-29T14:11:59;35.10;64.40
43049;DHT22;28673;44.412;11.918;2023-05-29T14:14:26;35.10;64.50
43049;DHT22;28673;44.412;11.918;2023-05-29T14:16:52;35.10;64.50
43049;DHT22;28673;44.412;11.918;2023-05-29T14:19:19;35.20;64.80
43049;DHT22;28673;44.412;11.918;2023-05-29T14:21:45;35.30;64.60
43049;DHT22;28673;44.412;11.918;2023-05-29T14:24:12;35.30;64.30
43049;DHT22;28673;44.412;11.918;2023-05-29T14:26:38;35.30;64.30
43049;DHT22;28673;44.412;11.918;2023-05-29T14:29:05;35.40;64.80
43049;DHT22;28673;44.412;11.918;2023-05-29T14:31:31;35.40;64.40
43049;DHT22;28673;44.412;11.918;2023-05-29T14:33:57;35.40;64.60
43049;DHT22;28673;44.412;11.918;2023-05-29T14:36:23;35.30;63.60
43049;DHT22;28673;44.412;11.918;2023-05-29T14:38:49;35.30;64.00
43049;DHT22;28673;44.412;11.918;2023-05-29T14:41:15;35.10;63.80
43049;DHT22;28673;44.412;11.918;2023-05-29T14:43:44;35.00;64.80
43049;DHT22;28673;44.412;11.918;2023-05-29T14:46:10;34.90;64.00
43049;DHT22;28673;44.412;11.918;2023-05-29T14:48:35;34.80;65.60
43049;DHT22;28673;44.412;11.918;2023-05-29T14:51:01;34.80;65.00
43049;DHT22;28673;44.412;11.918;2023-05-29T14:53:27;34.80;65.20
43049;DHT22;28673;44.412;11.918;2023-05-29T14:55:53;34.60;64.60
43049;DHT22;28673;44.412;11.918;2023-05-29T14:58:21;34.50;65.40
43049;DHT22;28673;44.412;11.918;2023-05-29T15:00:47;34.40;65.70
43049;DHT22;28673;44.412;11.918;2023-05-29T15:03:13;34.60;64.90
43049;DHT22;28673;44.412;11.918;2023-05-29T15:05:39;34.70;64.60
43049;DHT22;28673;44.412;11.918;2023-05-29T15:08:05;34.80;65.10
43049;DHT22;28673;44.412;11.918;2023-05-29T15:10:31;34.80;65.20
43049;DHT22;28673;44.412;11.918;2023-05-29T15:12:58;34.70;65.20
43049;DHT22;28673;44.412;11.918;2023-05-29T15:15:27;34.70;65.10
43049;DHT22;28673;44.412;11.918;2023-05-29T15:17:54;34.70;65.10
43049;DHT22;28673;44.412;11.918;2023-05-29T15:20:24;34.80;65.70
43049;DHT22;28673;44.412;11.918;2023-05-29T15:22:51;34.50;65.50
43049;DHT22;28673;44.412;11.918;2023-05-29T15:25:19;34.40;65.70
43049;DHT22;28673;44.412;11.918;2023-05-29T15:27:46;34.30;65.70
43049;DHT22;28673;44.412;11.918;2023-05-29T15:30:14;34.30;64.60
43049;DHT22;28673;44.412;11.918;2023-05-29T15:32:41;34.00;65.30
43049;DHT22;28673;44.412;11.918;2023-05-29T15:35:12;33.90;65.90
43049;DHT22;28673;44.412;11.918;2023-05-29T15:37:39;33.90;65.00
43049;DHT22;28673;44.412;11.918;2023-05-29T15:40:06;33.90;65.40
43049;DHT22;28673;44.412;11.918;2023-05-29T15:42:32;33.80;65.70
43049;DHT22;28673;44.412;11.918;2023-05-29T15:44:58;33.60;65.60
43049;DHT22;28673;44.412;11.918;2023-05-29T15:47:25;33.40;65.10
43049;DHT22;28673;44.412;11.918;2023-05-29T15:49:51;33.30;65.10
43049;DHT22;28673;44.412;11.918;2023-05-29T15:52:17;33.40;65.30
43049;DHT22;28673;44.412;11.918;2023-05-29T15:54:43;33.50;65.00
43049;DHT22;28673;44.412;11.918;2023-05-29T15:57:09;33.50;65.60
43049;DHT22;28673;44.412;11.918;2023-05-29T15:59:35;33.50;66.00
43049;DHT22;28673;44.412;11.918;2023-05-29T16:02:02;33.40;66.00
43049;DHT22;28673;44.412;11.918;2023-05-29T16:04:29;33.30;64.80
43049;DHT22;28673;44.412;11.918;2023-05-29T16:06:55;33.20;65.00
43049;DHT22;28673;44.412;11.918;2023-05-29T16:09:21;33.30;65.00
43049;DHT22;28673;44.412;11.918;2023-05-29T16:11:48;33.40;64.90
43049;DHT22;28673;44.412;11.918;2023-05-29T16:14:14;33.30;64.60
43049;DHT22;28673;44.412;11.918;2023-05-29T16:16:40;33.20;64.20